Time;durP1;ratioP1;P1;durP2;ratioP2;P2;SDS_P1;SDS_P2;PMS_P1;PMS_P2;Temp;Humidity;BMP_temperature;BMP_pressure;BME280_temperature;BME280_humidity;BME280_pressure;Samples;Min_cycle;Max_cycle;Signal;HPM_P1;HPM_P2
2023/06/26 00:00:27;;;;;;;2.42;1.02;;;15.60;99.90;;;;;;5012948;28;20049;-73
2023/06/26 00:02:52;;;;;;;3.50;1.17;;;15.50;99.90;;;;;;5017483;28;20108;-73
2023/06/26 00:05:18;;;;;;;4.47;1.10;;;15.50;99.90;;;;;;5014760;28;20075;-73
2023/06/26 00:07:44;;;;;;;3.30;1.00;;;15.50;99.90;;;;;;5017904;28;20083;-72
2023/06/26 00:10:09;;;;;;;4.90;1.20;;;15.40;99.90;;;;;;5013803;28;20041;-73
2023/06/26 00:12:35;;;;;;;3.53;1.00;;;15.40;99.90;;;;;;5013875;28;20417;-73
2023/06/26 00:15:01;;;;;;;3.60;0.93;;;15.40;99.90;;;;;;5013677;28;20030;-72
2023/06/26 00:17:26;;;;;;;1.90;0.75;;;15.40;99.90;;;;;;5016951;28;20022;-73
2023/06/26 00:19:52;;;;;;;5.53;1.00;;;15.30;99.90;;;;;;5016089;28;20132;-74
2023/06/26 00:22:21;;;;;;;8.43;1.33;;;15.30;99.90;;;;;;5009402;28;20041;-74
2023/06/26 00:24:46;;;;;;;3.88;0.80;;;15.30;99.90;;;;;;5012971;28;20029;-73
2023/06/26 00:27:12;;;;;;;4.68;1.00;;;15.30;99.90;;;;;;5017329;28;20368;-73
2023/06/26 00:29:38;;;;;;;3.97;0.65;;;15.30;99.90;;;;;;5012267;28;20450;-73
2023/06/26 00:32:04;;;;;;;3.67;0.90;;;15.20;99.90;;;;;;5014174;28;20104;-72
2023/06/26 00:34:30;;;;;;;5.18;1.00;;;15.20;99.90;;;;;;5001377;28;20259;-73
2023/06/26 00:36:55;;;;;;;6.57;0.98;;;15.10;99.90;;;;;;5009005;28;20116;-73
2023/06/26 00:39:21;;;;;;;1.90;0.90;;;15.10;99.90;;;;;;5010047;28;20349;-72
2023/06/26 00:41:47;;;;;;;4.07;0.95;;;15.00;99.90;;;;;;4999567;28;20125;-73
2023/06/26 00:44:13;;;;;;;3.90;0.98;;;15.00;99.90;;;;;;5013652;28;20568;-72
2023/06/26 00:46:38;;;;;;;4.80;1.30;;;15.00;99.90;;;;;;5013268;28;20137;-73
2023/06/26 00:49:04;;;;;;;2.00;1.10;;;14.90;99.90;;;;;;5010781;28;20041;-73
2023/06/26 00:51:31;;;;;;;6.68;1.40;;;14.90;99.90;;;;;;5015563;28;20453;-72
2023/06/26 00:53:57;;;;;;;5.00;1.40;;;14.90;99.90;;;;;;5015456;28;20021;-72
2023/06/26 00:56:23;;;;;;;3.58;1.20;;;14.80;99.90;;;;;;5015236;28;20037;-72
2023/06/26 00:58:49;;;;;;;4.60;1.10;;;14.80;99.90;;;;;;5015656;28;20159;-74
2023/06/26 01:01:17;;;;;;;4.97;1.75;;;14.80;99.90;;;;;;5016780;28;20125;-73
2023/06/26 01:03:52;;;;;;;6.50;1.33;;;14.70;99.90;;;;;;5002649;28;20022;-73
2023/06/26 01:06:21;;;;;;;2.15;1.13;;;14.60;99.90;;;;;;5002652;28;20037;-73
2023/06/26 01:08:48;;;;;;;2.47;1.00;;;14.60;99.90;;;;;;5012404;28;20026;-73
2023/06/26 01:11:15;;;;;;;5.20;1.50;;;14.60;99.90;;;;;;5010516;28;20025;-72
2023/06/26 01:13:44;;;;;;;3.08;1.02;;;14.50;99.90;;;;;;5013073;28;20028;-73
2023/06/26 01:16:10;;;;;;;4.05;1.13;;;14.50;99.90;;;;;;5012644;28;20582;-72
2023/06/26 01:18:42;;;;;;;3.40;0.88;;;14.50;99.90;;;;;;5015061;28;20041;-71
2023/06/26 01:21:09;;;;;;;4.05;0.93;;;14.50;99.90;;;;;;5027744;28;20887;-72
2023/06/26 01:23:53;;;;;;;3.67;1.00;;;14.40;99.90;;;;;;5012584;28;20026;-73
2023/06/26 01:26:19;;;;;;;5.85;0.93;;;14.40;99.90;;;;;;5013704;28;20033;-73
2023/06/26 01:28:45;;;;;;;3.22;1.05;;;14.40;99.90;;;;;;5014019;28;20105;-72
2023/06/26 01:31:12;;;;;;;2.70;1.05;;;14.30;99.90;;;;;;5008083;28;20026;-73
2023/06/26 01:33:39;;;;;;;2.22;1.10;;;14.30;99.90;;;;;;5020041;28;20049;-72
2023/06/26 01:36:06;;;;;;;7.88;1.52;;;14.20;99.90;;;;;;5011274;28;20121;-73
2023/06/26 01:38:32;;;;;;;4.43;1.10;;;14.20;99.90;;;;;;5016464;28;20041;-74
2023/06/26 01:40:59;;;;;;;2.55;1.00;;;14.10;99.90;;;;;;5021071;28;20026;-73
2023/06/26 01:43:43;;;;;;;5.25;1.40;;;14.10;99.90;;;;;;5014580;28;20147;-73
2023/06/26 01:46:38;;;;;;;4.88;1.30;;;14.20;99.90;;;;;;5016125;28;20041;-72
2023/06/26 01:49:32;;;;;;;4.15;1.02;;;14.10;99.90;;;;;;5010326;28;20113;-72
2023/06/26 01:52:28;;;;;;;6.20;1.30;;;14.00;99.90;;;;;;4970837;28;20590;-73
2023/06/26 01:54:56;;;;;;;3.28;1.25;;;14.00;99.90;;;;;;5010643;28;20033;-76
2023/06/26 01:57:26;;;;;;;4.75;1.33;;;14.00;99.90;;;;;;5013235;28;20026;-72
2023/06/26 01:59:53;;;;;;;5.32;1.27;;;14.00;99.90;;;;;;5012059;28;20029;-73
2023/06/26 02:02:19;;;;;;;10.40;1.65;;;14.00;99.90;;;;;;5009792;28;20036;-73
2023/06/26 02:04:45;;;;;;;8.20;1.40;;;13.90;99.90;;;;;;5020560;28;20033;-72
2023/06/26 02:07:11;;;;;;;4.50;1.55;;;13.90;99.90;;;;;;5014610;28;20110;-72
2023/06/26 02:09:36;;;;;;;6.57;1.50;;;13.90;99.90;;;;;;5017483;28;20034;-73
2023/06/26 02:12:02;;;;;;;4.28;1.20;;;13.90;99.90;;;;;;5013222;28;20033;-73
2023/06/26 02:14:28;;;;;;;3.05;1.38;;;13.90;99.90;;;;;;5014196;28;20083;-73
2023/06/26 02:16:53;;;;;;;8.52;1.30;;;13.90;99.90;;;;;;5019380;28;20041;-72
2023/06/26 02:19:21;;;;;;;5.43;1.40;;;13.90;99.90;;;;;;5013892;28;20030;-73
2023/06/26 02:21:49;;;;;;;4.80;1.38;;;13.80;99.90;;;;;;5015488;28;20381;-72
2023/06/26 02:24:14;;;;;;;3.65;1.38;;;13.90;99.90;;;;;;5013959;28;20031;-73
2023/06/26 02:26:40;;;;;;;7.95;1.15;;;13.90;99.90;;;;;;5005608;28;20041;-73
2023/06/26 02:29:05;;;;;;;4.53;1.42;;;13.80;99.90;;;;;;5010859;28;20108;-73
2023/06/26 02:31:31;;;;;;;7.50;1.77;;;13.80;99.90;;;;;;5016377;28;20052;-72
2023/06/26 02:33:57;;;;;;;4.50;1.35;;;13.80;99.90;;;;;;5016510;28;20049;-73
2023/06/26 02:36:23;;;;;;;3.33;1.30;;;13.80;99.90;;;;;;5017713;28;20048;-76
2023/06/26 02:38:48;;;;;;;7.78;1.65;;;13.80;99.90;;;;;;5015067;28;20022;-75
2023/06/26 02:41:14;;;;;;;6.07;1.67;;;13.90;99.90;;;;;;5015700;28;20064;-75
2023/06/26 02:43:39;;;;;;;4.28;1.63;;;13.80;99.90;;;;;;5014864;28;20109;-75
2023/06/26 02:46:05;;;;;;;5.80;1.38;;;13.80;99.90;;;;;;5015371;28;20132;-74
2023/06/26 02:48:31;;;;;;;6.10;2.00;;;13.80;99.90;;;;;;5020413;28;20526;-74
2023/06/26 02:50:56;;;;;;;5.50;1.52;;;13.80;99.90;;;;;;5017594;28;20033;-75
2023/06/26 02:53:22;;;;;;;5.40;1.58;;;13.80;99.90;;;;;;5017062;28;20754;-75
2023/06/26 02:55:48;;;;;;;7.88;1.40;;;13.80;99.90;;;;;;5018991;28;20025;-75
2023/06/26 02:58:13;;;;;;;6.03;1.40;;;13.80;99.90;;;;;;5013522;28;20106;-75
2023/06/26 03:00:41;;;;;;;5.53;1.42;;;13.70;99.90;;;;;;5018746;28;20060;-75
2023/06/26 03:03:07;;;;;;;6.35;1.52;;;13.80;99.90;;;;;;5004491;28;20868;-75
2023/06/26 03:05:33;;;;;;;7.05;1.50;;;13.80;99.90;;;;;;5020684;28;20036;-75
2023/06/26 03:07:58;;;;;;;6.57;1.60;;;13.70;99.90;;;;;;5017015;28;20071;-75
2023/06/26 03:10:24;;;;;;;3.95;1.20;;;13.70;99.90;;;;;;5019534;28;20029;-75
2023/06/26 03:12:50;;;;;;;4.22;1.40;;;13.70;99.90;;;;;;5013538;28;20025;-75
2023/06/26 03:15:15;;;;;;;6.78;1.48;;;13.60;99.90;;;;;;5004908;28;20017;-75
2023/06/26 03:17:41;;;;;;;6.82;1.42;;;13.60;99.90;;;;;;5018809;28;20030;-74
2023/06/26 03:20:08;;;;;;;5.22;1.48;;;13.60;99.90;;;;;;5011305;28;20425;-73
2023/06/26 03:22:34;;;;;;;7.10;1.83;;;13.60;99.90;;;;;;5017431;28;20510;-74
2023/06/26 03:24:59;;;;;;;6.72;1.83;;;13.50;99.90;;;;;;5014510;28;20084;-74
2023/06/26 03:27:25;;;;;;;9.13;1.90;;;13.50;99.90;;;;;;5014560;28;20501;-74
2023/06/26 03:29:52;;;;;;;5.53;1.60;;;13.50;99.90;;;;;;5016563;28;20602;-73
2023/06/26 03:32:18;;;;;;;4.07;1.30;;;13.50;99.90;;;;;;5011459;28;20473;-74
2023/06/26 03:34:43;;;;;;;5.75;1.80;;;13.50;99.90;;;;;;5017779;28;20049;-73
2023/06/26 03:37:09;;;;;;;6.85;1.50;;;13.50;99.90;;;;;;5018093;28;20491;-73
2023/06/26 03:39:35;;;;;;;5.13;1.33;;;13.50;99.90;;;;;;5010077;28;20449;-74
2023/06/26 03:42:01;;;;;;;7.55;1.50;;;13.50;99.90;;;;;;5017215;28;20037;-74
2023/06/26 03:44:27;;;;;;;4.85;1.20;;;13.40;99.90;;;;;;5029561;28;20250;-74
2023/06/26 03:46:53;;;;;;;7.75;1.60;;;13.40;99.90;;;;;;5019394;28;20553;-74
2023/06/26 03:49:19;;;;;;;10.65;1.50;;;13.30;99.90;;;;;;5017132;28;20028;-74
2023/06/26 03:51:45;;;;;;;4.43;1.65;;;13.30;99.90;;;;;;5009115;28;20079;-74
2023/06/26 03:54:11;;;;;;;9.85;1.60;;;13.30;99.90;;;;;;5013308;28;20078;-74
2023/06/26 03:56:37;;;;;;;4.43;1.50;;;13.20;99.90;;;;;;5014463;28;20042;-74
2023/06/26 03:59:02;;;;;;;9.25;1.60;;;13.20;99.90;;;;;;5012427;28;20364;-74
2023/06/26 04:01:28;;;;;;;8.38;1.60;;;13.30;99.90;;;;;;5016419;28;20041;-74
2023/06/26 04:03:54;;;;;;;5.03;1.55;;;13.20;99.90;;;;;;5008853;28;20044;-74
2023/06/26 04:06:20;;;;;;;5.88;1.75;;;13.20;99.90;;;;;;5016741;28;20143;-74
2023/06/26 04:08:45;;;;;;;6.07;1.30;;;13.20;99.90;;;;;;5012820;28;20094;-74
2023/06/26 04:11:11;;;;;;;5.55;1.58;;;13.20;99.90;;;;;;5013747;28;20587;-75
2023/06/26 04:13:36;;;;;;;3.13;1.30;;;13.20;99.90;;;;;;5013262;28;20037;-74
2023/06/26 04:16:02;;;;;;;7.28;1.67;;;13.20;99.90;;;;;;5008674;28;20034;-74
2023/06/26 04:18:28;;;;;;;3.15;1.60;;;13.20;99.90;;;;;;5009636;28;20037;-74
2023/06/26 04:21:07;;;;;;;8.68;1.88;;;13.30;99.90;;;;;;5004532;28;20033;-73
2023/06/26 04:23:34;;;;;;;9.90;1.88;;;13.30;99.90;;;;;;5016743;28;20079;-73
2023/06/26 04:25:59;;;;;;;5.88;1.92;;;13.30;99.90;;;;;;5014060;28;20100;-73
2023/06/26 04:28:25;;;;;;;8.90;2.20;;;13.40;99.90;;;;;;5013115;28;20116;-74
2023/06/26 04:30:51;;;;;;;4.72;2.08;;;13.40;99.90;;;;;;5012715;28;20029;-73
2023/06/26 04:33:16;;;;;;;4.75;1.58;;;13.40;99.90;;;;;;5013382;28;20053;-73
2023/06/26 04:35:44;;;;;;;6.25;2.13;;;13.50;99.90;;;;;;5015465;28;20087;-74
2023/06/26 04:38:11;;;;;;;4.97;1.70;;;13.50;99.90;;;;;;5009109;28;20136;-73
2023/06/26 04:40:36;;;;;;;8.23;1.50;;;13.50;99.90;;;;;;5008280;28;20067;-73
2023/06/26 04:43:02;;;;;;;8.80;1.88;;;13.60;99.90;;;;;;5009311;28;20911;-74
2023/06/26 04:45:27;;;;;;;6.82;2.00;;;13.60;99.90;;;;;;5012103;28;20029;-73
2023/06/26 04:47:53;;;;;;;6.00;1.70;;;13.70;99.90;;;;;;5013712;28;20045;-73
2023/06/26 04:50:19;;;;;;;8.30;1.60;;;13.70;99.90;;;;;;5011177;28;20098;-73
2023/06/26 04:52:45;;;;;;;7.70;1.75;;;13.70;99.90;;;;;;5012079;28;20037;-73
2023/06/26 04:55:10;;;;;;;5.68;1.70;;;13.80;99.90;;;;;;5015080;28;20734;-74
2023/06/26 04:57:36;;;;;;;5.85;1.63;;;13.80;99.90;;;;;;5010463;28;20034;-74
2023/06/26 05:00:08;;;;;;;5.97;1.60;;;13.90;99.90;;;;;;5010645;28;20029;-74
2023/06/26 05:02:33;;;;;;;4.90;1.40;;;13.90;99.90;;;;;;5006946;28;20132;-74
2023/06/26 05:04:59;;;;;;;4.55;1.50;;;14.00;99.90;;;;;;5012409;28;20029;-73
2023/06/26 05:07:24;;;;;;;7.28;1.83;;;14.10;99.90;;;;;;5001792;28;20820;-73
2023/06/26 05:09:50;;;;;;;8.80;1.60;;;14.10;99.90;;;;;;5014101;28;20033;-73
2023/06/26 05:12:16;;;;;;;8.90;1.52;;;14.10;99.90;;;;;;5011966;28;20048;-73
2023/06/26 05:14:41;;;;;;;7.82;1.50;;;14.20;99.90;;;;;;5009614;28;20456;-73
2023/06/26 05:17:07;;;;;;;9.07;1.80;;;14.20;99.90;;;;;;5010282;28;20113;-73
2023/06/26 05:19:32;;;;;;;4.40;1.52;;;14.30;99.90;;;;;;5005206;28;20063;-73
2023/06/26 05:22:01;;;;;;;7.85;1.83;;;14.30;99.90;;;;;;5013415;28;20076;-73
2023/06/26 05:24:27;;;;;;;7.45;1.70;;;14.40;99.90;;;;;;5012610;28;20810;-73
2023/06/26 05:26:53;;;;;;;8.25;1.80;;;14.50;99.90;;;;;;5008705;28;20133;-73
2023/06/26 05:29:19;;;;;;;6.07;2.00;;;14.50;99.90;;;;;;5011479;28;20547;-73
2023/06/26 05:31:47;;;;;;;10.07;2.25;;;14.60;99.90;;;;;;5012823;28;20028;-74
2023/06/26 05:34:13;;;;;;;7.45;2.00;;;14.70;99.90;;;;;;5004569;28;20147;-73
2023/06/26 05:36:42;;;;;;;6.88;2.10;;;14.70;99.90;;;;;;5012466;28;20022;-74
2023/06/26 05:39:08;;;;;;;10.57;1.85;;;14.80;99.90;;;;;;5010273;28;20037;-73
2023/06/26 05:41:34;;;;;;;6.45;1.77;;;14.80;99.90;;;;;;4998589;28;20595;-73
2023/06/26 05:43:59;;;;;;;7.93;1.67;;;14.90;99.90;;;;;;5009599;28;20124;-73
2023/06/26 05:46:25;;;;;;;5.25;1.73;;;14.90;99.90;;;;;;5011983;28;20041;-73
2023/06/26 05:48:51;;;;;;;7.63;1.73;;;15.00;99.90;;;;;;5007856;28;20121;-74
2023/06/26 05:51:17;;;;;;;9.15;1.95;;;15.10;99.90;;;;;;5011415;28;20026;-73
2023/06/26 05:53:43;;;;;;;6.43;1.75;;;15.20;99.90;;;;;;5012950;28;20033;-73
2023/06/26 05:56:09;;;;;;;6.20;1.63;;;15.30;99.90;;;;;;5013989;28;20029;-72
2023/06/26 05:58:35;;;;;;;6.13;1.92;;;15.40;99.90;;;;;;4999997;28;20037;-74
2023/06/26 06:01:01;;;;;;;8.15;2.00;;;15.50;99.90;;;;;;5010612;28;20037;-73
2023/06/26 06:03:27;;;;;;;9.38;3.45;;;15.50;99.90;;;;;;5005196;28;20034;-73
2023/06/26 06:05:52;;;;;;;11.93;5.88;;;15.60;99.90;;;;;;5000258;28;20037;-74
2023/06/26 06:08:18;;;;;;;7.80;3.20;;;15.70;99.90;;;;;;5004883;28;20037;-73
2023/06/26 06:10:43;;;;;;;7.97;1.70;;;15.70;99.90;;;;;;5003504;28;20025;-73
2023/06/26 06:13:09;;;;;;;6.65;2.33;;;15.80;99.90;;;;;;5002548;28;20034;-73
2023/06/26 06:15:35;;;;;;;5.93;1.90;;;15.80;99.90;;;;;;5004211;28;20032;-73
2023/06/26 06:18:00;;;;;;;5.88;1.63;;;15.90;99.90;;;;;;5006707;28;20031;-73
2023/06/26 06:20:26;;;;;;;10.43;3.22;;;16.00;99.90;;;;;;5016522;28;20045;-73
2023/06/26 06:22:52;;;;;;;18.60;2.88;;;16.00;99.90;;;;;;5016210;28;20029;-72
2023/06/26 06:25:18;;;;;;;22.15;12.73;;;16.10;99.90;;;;;;5014628;28;20120;-73
2023/06/26 06:27:44;;;;;;;22.83;9.85;;;16.30;99.90;;;;;;5006661;28;20197;-74
2023/06/26 06:30:11;;;;;;;5.93;2.20;;;16.40;99.90;;;;;;5007860;28;20034;-73
2023/06/26 06:32:36;;;;;;;7.30;2.75;;;16.40;99.90;;;;;;5008211;28;20025;-74
2023/06/26 06:35:08;;;;;;;11.13;2.20;;;16.50;99.90;;;;;;5006459;28;20095;-74
2023/06/26 06:37:34;;;;;;;8.50;2.20;;;16.50;99.90;;;;;;5008987;28;20809;-73
2023/06/26 06:39:59;;;;;;;53.50;33.83;;;16.60;99.90;;;;;;5010540;28;20018;-73
2023/06/26 06:42:25;;;;;;;8.82;3.10;;;16.60;99.90;;;;;;5016024;28;20029;-74
2023/06/26 06:44:51;;;;;;;11.20;1.80;;;16.70;99.90;;;;;;5006770;28;20037;-73
2023/06/26 06:47:16;;;;;;;7.05;1.95;;;16.70;99.90;;;;;;5013079;28;20144;-73
2023/06/26 06:49:42;;;;;;;8.55;1.98;;;16.80;99.90;;;;;;5014518;28;20622;-74
2023/06/26 06:52:07;;;;;;;8.88;2.00;;;16.90;99.90;;;;;;5011282;28;20152;-74
2023/06/26 06:54:54;;;;;;;10.07;2.20;;;16.90;99.90;;;;;;5016760;28;20250;-73
2023/06/26 06:57:21;;;;;;;15.82;5.68;;;17.00;99.90;;;;;;5014782;28;20021;-73
2023/06/26 06:59:48;;;;;;;8.75;2.22;;;17.10;99.90;;;;;;5012445;28;20064;-73
2023/06/26 07:02:15;;;;;;;8.75;2.05;;;17.20;99.90;;;;;;5014206;28;20084;-71
2023/06/26 07:04:40;;;;;;;7.40;2.10;;;17.20;99.90;;;;;;5017225;28;20033;-71
2023/06/26 07:07:06;;;;;;;8.75;1.80;;;17.30;99.90;;;;;;5018006;28;20060;-73
2023/06/26 07:09:32;;;;;;;6.95;1.70;;;17.30;99.90;;;;;;5019475;28;20437;-73
2023/06/26 07:11:57;;;;;;;9.68;1.95;;;17.50;99.90;;;;;;5019739;28;20029;-75
2023/06/26 07:14:23;;;;;;;8.65;1.70;;;17.60;99.90;;;;;;5016326;28;20468;-73
2023/06/26 07:16:49;;;;;;;8.20;1.80;;;17.70;99.90;;;;;;5011292;28;20485;-73
2023/06/26 07:19:14;;;;;;;6.40;1.45;;;17.90;99.90;;;;;;5015078;28;20057;-73
2023/06/26 07:21:41;;;;;;;11.30;1.85;;;18.10;99.90;;;;;;5018244;28;20109;-73
2023/06/26 07:24:07;;;;;;;6.75;1.75;;;18.20;99.90;;;;;;5018066;28;20021;-73
2023/06/26 07:26:33;;;;;;;13.13;1.70;;;18.30;99.90;;;;;;5012537;28;20091;-73
2023/06/26 07:28:58;;;;;;;6.88;1.77;;;18.60;99.90;;;;;;5009181;28;20436;-74
2023/06/26 07:31:24;;;;;;;7.75;1.60;;;19.00;99.90;;;;;;5016374;28;20546;-74
2023/06/26 07:33:49;;;;;;;11.90;1.60;;;20.20;99.90;;;;;;5015299;28;20428;-76
2023/06/26 07:36:15;;;;;;;7.63;1.80;;;21.50;99.90;;;;;;5006343;28;20030;-73
2023/06/26 07:38:41;;;;;;;6.10;1.40;;;24.00;99.90;;;;;;5009595;28;20037;-76
2023/06/26 07:41:06;;;;;;;6.05;1.20;;;26.60;99.90;;;;;;5011299;28;20030;-75
2023/06/26 07:43:32;;;;;;;6.00;1.40;;;29.00;90.80;;;;;;5005496;28;20064;-74
2023/06/26 07:45:58;;;;;;;4.38;1.08;;;30.60;76.50;;;;;;5000503;28;20036;-74
2023/06/26 07:48:25;;;;;;;3.95;1.30;;;31.80;64.70;;;;;;5004039;28;20025;-74
2023/06/26 07:50:50;;;;;;;3.72;1.10;;;33.10;57.80;;;;;;5013368;28;20095;-74
2023/06/26 07:53:16;;;;;;;4.55;1.20;;;33.90;52.90;;;;;;5010770;28;20037;-75
2023/06/26 07:55:42;;;;;;;5.30;1.15;;;34.60;51.50;;;;;;5011314;28;20033;-74
2023/06/26 07:58:08;;;;;;;8.38;1.50;;;34.30;50.00;;;;;;5011346;28;20029;-73
2023/06/26 08:00:34;;;;;;;4.88;1.40;;;33.90;48.40;;;;;;5012458;28;20115;-74
2023/06/26 08:02:59;;;;;;;5.38;1.52;;;34.20;49.20;;;;;;5013182;23;20061;-74
2023/06/26 08:05:25;;;;;;;6.90;1.40;;;33.90;48.30;;;;;;5009602;28;20091;-74
2023/06/26 08:07:51;;;;;;;7.43;1.10;;;34.10;48.70;;;;;;5012435;28;20034;-74
2023/06/26 08:10:16;;;;;;;6.10;1.35;;;34.30;47.90;;;;;;5009836;28;20105;-74
2023/06/26 08:12:44;;;;;;;7.43;1.20;;;34.70;47.20;;;;;;5012001;28;20472;-74
2023/06/26 08:15:11;;;;;;;7.28;1.10;;;34.60;46.00;;;;;;5007153;28;23560;-74
2023/06/26 08:17:37;;;;;;;8.02;1.45;;;35.10;46.70;;;;;;5007915;28;20061;-74
2023/06/26 08:20:04;;;;;;;5.80;1.08;;;35.40;44.80;;;;;;5010710;28;20038;-75
2023/06/26 08:22:30;;;;;;;7.63;1.13;;;35.60;44.70;;;;;;5006127;28;20090;-75
2023/06/26 08:24:56;;;;;;;4.72;1.40;;;36.20;43.40;;;;;;5013218;28;20049;-75
2023/06/26 08:27:23;;;;;;;4.97;1.02;;;35.40;43.10;;;;;;4990693;28;20175;-75
2023/06/26 08:29:48;;;;;;;4.18;1.20;;;34.00;44.00;;;;;;5014792;28;20098;-76
2023/06/26 08:32:14;;;;;;;4.90;1.20;;;33.30;45.70;;;;;;5008977;28;20033;-76
2023/06/26 08:34:40;;;;;;;4.97;0.85;;;33.60;45.70;;;;;;5021537;28;20045;-76
2023/06/26 08:37:08;;;;;;;4.78;1.02;;;34.90;43.90;;;;;;5010448;28;20045;-77
2023/06/26 08:39:34;;;;;;;5.72;0.90;;;35.60;42.90;;;;;;5013808;28;20880;-74
2023/06/26 08:42:00;;;;;;;5.22;0.95;;;36.80;41.60;;;;;;5011798;28;20115;-74
2023/06/26 08:44:26;;;;;;;3.35;0.88;;;38.00;41.50;;;;;;5018953;28;20552;-73
2023/06/26 08:46:52;;;;;;;5.00;1.10;;;38.50;39.60;;;;;;5020342;28;20030;-74
2023/06/26 08:49:25;;;;;;;2.65;1.00;;;39.20;37.60;;;;;;5019275;28;20060;-74
2023/06/26 08:52:06;;;;;;;3.72;1.13;;;39.40;35.40;;;;;;5014378;28;20104;-75
2023/06/26 08:54:40;;;;;;;3.78;1.10;;;39.50;35.60;;;;;;5017049;28;20087;-75
2023/06/26 08:57:07;;;;;;;3.70;0.88;;;38.70;35.90;;;;;;5018086;28;20034;-74
2023/06/26 08:59:33;;;;;;;3.40;0.90;;;37.20;37.50;;;;;;5015266;28;20263;-74
2023/06/26 09:01:59;;;;;;;4.47;1.20;;;36.20;41.30;;;;;;5032550;28;20120;-74
2023/06/26 09:04:25;;;;;;;6.40;0.80;;;36.00;38.00;;;;;;5016742;28;20507;-76
2023/06/26 09:06:51;;;;;;;2.67;1.10;;;35.50;39.10;;;;;;5014501;28;20053;-77
2023/06/26 09:09:16;;;;;;;3.58;0.90;;;35.90;38.70;;;;;;5012752;28;20078;-77
2023/06/26 09:11:42;;;;;;;4.30;0.90;;;36.80;37.30;;;;;;4998805;28;20034;-76
2023/06/26 09:14:10;;;;;;;2.95;0.90;;;36.60;37.90;;;;;;4996927;28;20018;-75
2023/06/26 09:16:42;;;;;;;2.83;0.55;;;36.60;36.20;;;;;;5010878;28;20037;-75
2023/06/26 09:19:11;;;;;;;2.38;0.77;;;37.00;35.90;;;;;;5009707;28;20112;-74
2023/06/26 09:21:39;;;;;;;4.57;1.10;;;38.20;34.50;;;;;;5014638;28;20033;-74
2023/06/26 09:24:08;;;;;;;3.25;0.90;;;39.70;34.10;;;;;;5013123;28;20037;-74
2023/06/26 09:26:38;;;;;;;2.78;0.80;;;40.60;33.10;;;;;;5025425;28;20049;-75
2023/06/26 09:29:07;;;;;;;3.42;0.95;;;39.60;32.90;;;;;;5013137;28;20025;-73
2023/06/26 09:31:36;;;;;;;3.55;0.70;;;38.20;32.70;;;;;;5013740;28;20097;-73
2023/06/26 09:34:03;;;;;;;5.30;1.00;;;38.00;33.10;;;;;;5004455;28;20080;-73
2023/06/26 09:36:33;;;;;;;4.95;0.80;;;39.00;32.60;;;;;;5013740;28;20064;-73
2023/06/26 09:39:04;;;;;;;5.53;1.00;;;40.40;32.00;;;;;;5005975;28;20104;-74
2023/06/26 09:41:30;;;;;;;2.40;0.82;;;41.30;32.20;;;;;;5009564;28;20036;-74
2023/06/26 09:44:00;;;;;;;2.30;0.60;;;42.00;30.20;;;;;;5006936;28;20108;-74
2023/06/26 09:46:27;;;;;;;;;;;42.90;30.00;;;;;;5004338;28;20064;-74
2023/06/26 09:49:10;;;;;;;2.78;0.98;;;43.10;30.00;;;;;;5006448;28;19920;-74
2023/06/26 09:51:37;;;;;;;6.88;1.13;;;43.50;29.80;;;;;;5004251;28;20025;-76
2023/06/26 09:54:05;;;;;;;6.22;2.45;;;44.00;29.60;;;;;;5009362;28;20925;-73
2023/06/26 09:56:31;;;;;;;4.70;1.60;;;42.90;28.50;;;;;;5034222;28;20037;-73
2023/06/26 09:58:59;;;;;;;4.97;1.20;;;40.10;30.10;;;;;;5029393;28;20026;-73
2023/06/26 10:01:25;;;;;;;2.90;0.90;;;38.00;32.40;;;;;;5020309;28;20190;-74
2023/06/26 10:03:51;;;;;;;4.70;0.93;;;37.50;31.80;;;;;;5031542;28;20040;-74
2023/06/26 10:06:42;;;;;;;3.72;0.85;;;37.70;32.70;;;;;;5042441;28;20025;-74
2023/06/26 10:09:09;;;;;;;3.00;0.90;;;39.10;33.40;;;;;;5036379;28;20053;-75
2023/06/26 10:11:45;;;;;;;3.10;0.90;;;41.00;31.50;;;;;;5020313;28;20029;-74
2023/06/26 10:14:12;;;;;;;4.50;1.30;;;41.70;30.20;;;;;;5025220;28;20479;-75
2023/06/26 10:16:41;;;;;;;4.78;1.33;;;42.80;29.10;;;;;;5041534;28;20033;-74
2023/06/26 10:19:10;;;;;;;4.73;1.23;;;41.20;28.40;;;;;;5035110;28;20865;-75
2023/06/26 10:21:41;;;;;;;2.70;0.82;;;39.40;32.30;;;;;;5030743;28;20365;-74
2023/06/26 10:24:07;;;;;;;5.10;1.17;;;38.80;32.20;;;;;;5032307;28;20364;-73
2023/06/26 10:26:38;;;;;;;2.25;0.82;;;39.60;31.50;;;;;;5034760;28;20033;-74
2023/06/26 10:29:05;;;;;;;;;;;41.00;31.60;;;;;;5032523;28;20116;-75
2023/06/26 10:31:32;;;;;;;3.97;0.90;;;42.20;29.60;;;;;;5026055;28;19931;-74
2023/06/26 10:33:57;;;;;;;4.95;0.75;;;43.20;29.90;;;;;;5037183;28;20257;-74
2023/06/26 10:36:31;;;;;;;5.28;0.93;;;41.90;28.40;;;;;;5032890;28;20460;-74
2023/06/26 10:38:58;;;;;;;3.38;1.00;;;40.30;29.90;;;;;;5041909;28;20025;-73
2023/06/26 10:41:25;;;;;;;6.00;1.08;;;38.70;30.80;;;;;;5037585;28;20036;-74
2023/06/26 10:44:16;;;;;;;3.70;0.82;;;37.50;32.50;;;;;;5037306;28;20369;-74
2023/06/26 10:46:56;;;;;;;5.13;1.10;;;38.20;31.90;;;;;;5037821;28;20037;-74
2023/06/26 10:49:27;;;;;;;2.53;0.70;;;36.90;32.00;;;;;;5038370;28;20112;-73
2023/06/26 10:51:55;;;;;;;4.80;1.27;;;35.00;34.20;;;;;;5034381;28;20112;-74
2023/06/26 10:54:21;;;;;;;3.47;1.05;;;33.20;35.40;;;;;;5032454;28;20514;-73
2023/06/26 10:56:49;;;;;;;3.22;1.25;;;33.90;35.50;;;;;;5034338;28;20033;-74
2023/06/26 10:59:18;;;;;;;2.95;0.80;;;34.90;33.10;;;;;;5042612;28;20033;-74
2023/06/26 11:01:46;;;;;;;4.28;1.08;;;35.50;32.90;;;;;;5039346;28;20032;-74
2023/06/26 11:04:16;;;;;;;2.15;0.68;;;36.70;33.60;;;;;;5038386;28;20041;-74
2023/06/26 11:06:45;;;;;;;2.85;0.70;;;38.40;30.90;;;;;;5035154;28;20052;-73
2023/06/26 11:09:15;;;;;;;3.67;0.75;;;39.10;29.80;;;;;;5040169;28;20048;-74
2023/06/26 11:11:59;;;;;;;2.13;0.80;;;38.80;30.00;;;;;;5033103;28;20497;-73
2023/06/26 11:14:26;;;;;;;2.80;0.60;;;38.70;31.20;;;;;;5045632;28;20051;-73
2023/06/26 11:16:56;;;;;;;2.08;0.85;;;39.50;32.50;;;;;;4379002;28;10000737;-73
2023/06/26 11:19:22;;;;;;;3.50;0.80;;;40.50;31.30;;;;;;4686028;28;10000150;-74
2023/06/26 11:21:48;;;;;;;1.58;0.70;;;40.50;29.60;;;;;;5028074;28;20090;-72
2023/06/26 11:24:14;;;;;;;3.08;0.82;;;40.20;29.10;;;;;;5030661;28;20056;-74
2023/06/26 11:26:41;;;;;;;1.92;0.65;;;37.70;29.90;;;;;;5030221;28;20775;-74
2023/06/26 11:29:07;;;;;;;3.45;0.70;;;35.40;32.00;;;;;;5028865;28;20024;-74
2023/06/26 11:31:41;;;;;;;3.40;0.73;;;33.80;35.30;;;;;;5030719;28;20093;-74
2023/06/26 11:34:12;;;;;;;3.47;0.77;;;32.90;37.30;;;;;;5031016;28;20422;-73
2023/06/26 11:36:42;;;;;;;;;;;32.30;36.20;;;;;;5048288;28;20468;-74
2023/06/26 11:39:08;;;;;;;3.63;0.90;;;31.30;37.70;;;;;;5033146;28;19917;-74
2023/06/26 11:41:38;;;;;;;3.00;0.75;;;30.80;40.80;;;;;;5035322;28;20632;-74
2023/06/26 11:44:08;;;;;;;3.75;0.80;;;31.20;40.60;;;;;;5034688;28;20047;-73
2023/06/26 11:46:35;;;;;;;3.45;0.90;;;31.00;36.70;;;;;;5031146;28;20033;-74
2023/06/26 11:49:04;;;;;;;2.22;0.60;;;29.90;39.50;;;;;;5032356;28;20124;-74
2023/06/26 11:51:29;;;;;;;3.10;0.80;;;29.90;41.00;;;;;;5048776;28;20495;-73
2023/06/26 11:53:55;;;;;;;1.73;0.85;;;30.00;42.30;;;;;;5029190;28;20025;-74
2023/06/26 11:56:25;;;;;;;2.28;0.70;;;30.00;39.00;;;;;;5033752;28;20032;-73
2023/06/26 11:59:05;;;;;;;3.92;0.82;;;30.00;41.10;;;;;;5032612;28;20032;-73
2023/06/26 12:01:44;;;;;;;4.88;0.85;;;29.90;43.30;;;;;;5026774;28;20324;-74
2023/06/26 12:04:11;;;;;;;3.20;0.77;;;30.70;38.80;;;;;;5033147;28;20053;-74
2023/06/26 12:06:42;;;;;;;4.43;0.70;;;31.20;40.70;;;;;;5030259;28;20511;-73
2023/06/26 12:09:10;;;;;;;;;;;31.70;40.20;;;;;;5033501;28;20173;-73
2023/06/26 12:11:38;;;;;;;2.53;0.80;;;31.20;37.80;;;;;;5039119;28;19909;-73
2023/06/26 12:14:06;;;;;;;4.82;0.70;;;30.70;37.70;;;;;;5037812;28;20040;-73
2023/06/26 12:16:33;;;;;;;3.67;0.77;;;30.20;38.90;;;;;;5038775;28;20411;-73
2023/06/26 12:19:04;;;;;;;2.47;0.70;;;29.70;41.20;;;;;;5036351;28;20419;-73
2023/06/26 12:21:42;;;;;;;1.50;0.75;;;29.50;39.90;;;;;;5031120;28;20076;-73
2023/06/26 12:24:09;;;;;;;2.72;0.85;;;29.40;42.90;;;;;;5030972;28;20032;-73
2023/06/26 12:26:36;;;;;;;2.95;1.10;;;29.60;39.50;;;;;;5036278;28;20123;-73
2023/06/26 12:29:06;;;;;;;2.25;0.90;;;29.60;42.20;;;;;;5037042;28;20627;-72
2023/06/26 12:31:33;;;;;;;3.92;0.88;;;30.20;41.00;;;;;;5039167;28;20025;-73
2023/06/26 12:33:59;;;;;;;3.50;1.05;;;29.60;38.70;;;;;;5038597;28;20483;-73
2023/06/26 12:36:25;;;;;;;2.92;0.80;;;29.10;41.70;;;;;;5036087;28;20029;-73
2023/06/26 12:38:53;;;;;;;2.60;0.90;;;28.70;41.50;;;;;;5036815;28;20051;-73
2023/06/26 12:41:20;;;;;;;2.63;0.90;;;28.30;41.90;;;;;;5035258;28;20162;-74
2023/06/26 12:43:45;;;;;;;2.95;1.13;;;28.40;43.20;;;;;;5036272;28;20706;-73
2023/06/26 12:46:11;;;;;;;4.40;1.13;;;28.50;44.00;;;;;;5037577;28;20035;-74
2023/06/26 12:48:46;;;;;;;5.85;1.00;;;28.40;42.20;;;;;;5032666;28;20060;-74